Time;durP1;ratioP1;P1;durP2;ratioP2;P2;SDS_P1;SDS_P2;PMS_P1;PMS_P2;Temp;Humidity;BMP_temperature;BMP_pressure;BME280_temperature;BME280_humidity;BME280_pressure;Samples;Min_cycle;Max_cycle;Signal;HPM_P1;HPM_P2
2023/04/02 00:01:37;;;;;;;129.93;119.15;;;;;;;9.31;100.00;99857.19;5032248;28;20053;-87
2023/04/02 00:04:28;;;;;;;103.47;94.43;;;;;;;9.17;100.00;99842.47;5032102;28;20466;-87
2023/04/02 00:07:29;;;;;;;110.25;100.75;;;;;;;9.35;100.00;99839.84;5031499;28;20436;-87
2023/04/02 00:09:57;;;;;;;120.03;110.03;;;;;;;9.11;100.00;99843.34;5032862;28;20081;-87
2023/04/02 00:12:25;;;;;;;106.63;97.78;;;;;;;9.34;100.00;99835.56;5031651;28;20042;-87
2023/04/02 00:14:54;;;;;;;91.32;83.45;;;;;;;9.15;100.00;99845.31;5031594;28;20513;-87
2023/04/02 00:17:24;;;;;;;100.75;92.10;;;;;;;9.24;100.00;99839.75;5033080;28;20045;-87
2023/04/02 00:19:56;;;;;;;110.53;101.47;;;;;;;9.33;100.00;99844.53;5031324;28;20048;-87
2023/04/02 00:22:27;;;;;;;107.53;98.38;;;;;;;9.06;100.00;99840.50;5031152;28;20080;-87
2023/04/02 00:24:56;;;;;;;107.95;98.75;;;;;;;9.02;100.00;99845.44;5030858;28;20535;-87
2023/04/02 00:27:24;;;;;;;104.78;95.60;;;;;;;9.04;100.00;99853.16;5032444;28;20128;-87
2023/04/02 00:29:53;;;;;;;116.15;106.45;;;;;;;9.22;100.00;99845.25;5030974;28;20045;-87
2023/04/02 00:32:23;;;;;;;120.75;110.53;;;;;;;9.04;100.00;99848.66;5031474;28;20107;-87
2023/04/02 00:34:50;;;;;;;116.45;106.63;;;;;;;9.05;100.00;99841.56;5030911;28;20423;-87
2023/04/02 00:37:22;;;;;;;122.53;112.40;;;;;;;9.14;100.00;99849.00;5031499;28;20053;-87
2023/04/02 00:39:52;;;;;;;108.72;99.22;;;;;;;9.10;100.00;99853.09;5031727;28;20049;-87
2023/04/02 00:42:21;;;;;;;104.15;95.35;;;;;;;9.28;100.00;99848.88;5032056;28;20120;-87
2023/04/02 00:44:50;;;;;;;107.05;98.25;;;;;;;9.16;100.00;99849.56;5031276;28;20049;-87
2023/04/02 00:47:21;;;;;;;103.57;94.68;;;;;;;9.18;100.00;99844.88;5031169;28;20057;-87
2023/04/02 00:49:54;;;;;;;107.53;98.40;;;;;;;9.15;100.00;99844.50;5030997;28;20045;-87
2023/04/02 00:52:25;;;;;;;101.53;92.95;;;;;;;9.74;100.00;99852.88;5030998;28;20103;-87
2023/04/02 00:54:58;;;;;;;104.63;96.10;;;;;;;9.36;100.00;99843.28;5031269;28;20487;-87
2023/04/02 00:57:26;;;;;;;95.90;87.70;;;;;;;9.36;100.00;99841.44;5030637;28;20045;-86
2023/04/02 00:59:58;;;;;;;104.78;95.93;;;;;;;9.21;100.00;99846.28;5032168;28;20045;-87
2023/04/02 01:02:28;;;;;;;99.63;91.43;;;;;;;9.47;100.00;99847.03;5030525;28;20045;-87
2023/04/02 01:04:57;;;;;;;88.68;81.28;;;;;;;9.45;100.00;99841.19;5030257;28;20763;-87
2023/04/02 01:07:38;;;;;;;87.53;80.15;;;;;;;9.23;100.00;99827.50;5031130;28;20120;-87
2023/04/02 01:10:18;;;;;;;100.53;92.15;;;;;;;9.38;100.00;99842.06;5031212;28;20123;-87
2023/04/02 01:12:55;;;;;;;96.60;88.43;;;;;;;9.35;100.00;99847.00;5031583;28;20099;-85
2023/04/02 01:15:30;;;;;;;101.40;93.00;;;;;;;9.38;100.00;99850.00;5030265;28;20054;-87
2023/04/02 01:18:17;;;;;;;103.10;94.63;;;;;;;9.47;100.00;99842.59;5030063;28;20513;-87
2023/04/02 01:21:13;;;;;;;93.32;85.20;;;;;;;9.56;100.00;99848.38;5031153;28;20095;-87
2023/04/02 01:23:52;;;;;;;101.10;92.80;;;;;;;9.60;100.00;99858.34;5005676;28;20050;-87
2023/04/02 01:26:31;;;;;;;82.15;75.30;;;;;;;9.76;100.00;99854.28;5030372;28;20072;-87
2023/04/02 01:29:05;;;;;;;97.93;89.97;;;;;;;9.57;100.00;99852.66;5029456;28;20045;-87
2023/04/02 01:31:33;;;;;;;97.85;90.35;;;;;;;9.40;100.00;99849.78;5030358;28;20123;-87
2023/04/02 01:34:02;;;;;;;111.43;102.97;;;;;;;9.60;100.00;99849.56;5030087;28;20057;-87
2023/04/02 01:36:37;;;;;;;100.72;92.40;;;;;;;9.40;100.00;99847.13;5029320;28;20469;-87
2023/04/02 01:39:16;;;;;;;109.80;101.10;;;;;;;9.55;100.00;99850.22;5031433;28;20050;-87
2023/04/02 01:41:47;;;;;;;113.13;103.72;;;;;;;9.43;100.00;99851.19;5030685;28;20469;-87
2023/04/02 01:44:22;;;;;;;116.00;106.43;;;;;;;9.28;100.00;99854.97;5030537;28;20049;-87
2023/04/02 01:46:49;;;;;;;106.97;97.97;;;;;;;9.24;100.00;99856.44;5029875;28;20096;-87
2023/04/02 01:49:20;;;;;;;103.57;94.78;;;;;;;9.76;100.00;99859.59;5030670;28;20060;-87
2023/04/02 01:51:52;;;;;;;89.68;81.85;;;;;;;9.37;100.00;99866.13;5030165;28;20606;-87
2023/04/02 01:54:21;;;;;;;103.82;95.55;;;;;;;9.74;100.00;99863.50;5031126;28;20053;-87
2023/04/02 01:56:48;;;;;;;95.75;87.47;;;;;;;9.35;100.00;99865.53;5031006;28;20050;-87
2023/04/02 01:59:19;;;;;;;90.45;82.65;;;;;;;9.54;100.00;99863.72;5030522;28;20041;-87
2023/04/02 02:01:50;;;;;;;92.95;84.85;;;;;;;9.52;100.00;99869.22;5030090;28;20107;-87
2023/04/02 02:04:18;;;;;;;106.30;97.50;;;;;;;9.17;100.00;99869.75;5033575;28;20053;-87
2023/04/02 02:06:45;;;;;;;103.38;94.35;;;;;;;9.47;100.00;99868.25;5035418;28;20049;-87
2023/04/02 02:09:17;;;;;;;94.40;86.53;;;;;;;9.12;100.00;99874.88;5034351;28;20050;-86
2023/04/02 02:11:44;;;;;;;100.70;92.07;;;;;;;9.10;100.00;99871.63;5035266;28;20075;-87
2023/04/02 02:14:17;;;;;;;93.93;86.03;;;;;;;9.49;100.00;99869.66;5034545;28;20041;-87
2023/04/02 02:16:46;;;;;;;98.00;89.90;;;;;;;9.60;100.00;99874.25;5032992;28;20404;-86
2023/04/02 02:19:22;;;;;;;86.32;78.68;;;;;;;8.94;100.00;99866.88;5034512;28;20042;-87
2023/04/02 02:21:52;;;;;;;112.95;103.60;;;;;;;8.97;100.00;99871.75;5033353;28;20045;-87
2023/04/02 02:24:21;;;;;;;101.43;93.55;;;;;;;9.20;100.00;99870.34;5034557;28;20107;-87
2023/04/02 02:26:54;;;;;;;96.68;88.75;;;;;;;9.09;100.00;99880.63;5034818;28;20140;-87
2023/04/02 02:29:24;;;;;;;88.03;80.43;;;;;;;9.23;100.00;99880.50;5032521;28;20045;-87
2023/04/02 02:31:55;;;;;;;88.28;80.88;;;;;;;9.31;100.00;99875.75;5034019;28;20436;-86
2023/04/02 02:34:38;;;;;;;89.15;81.90;;;;;;;9.11;100.00;99888.38;5033555;28;20042;-87
2023/04/02 02:37:12;;;;;;;94.97;87.47;;;;;;;9.14;100.00;99882.63;5033726;28;20042;-87
2023/04/02 02:39:42;;;;;;;88.78;81.32;;;;;;;9.14;100.00;99886.09;5034919;28;20518;-87
2023/04/02 02:42:15;;;;;;;99.75;91.65;;;;;;;9.14;100.00;99894.03;5034906;28;20107;-87
2023/04/02 02:44:46;;;;;;;88.05;80.65;;;;;;;9.16;100.00;99891.97;5033523;28;20049;-87
2023/04/02 02:47:16;;;;;;;90.35;82.75;;;;;;;9.33;100.00;99883.50;5031962;28;20041;-86
2023/04/02 02:49:48;;;;;;;107.80;99.38;;;;;;;9.17;100.00;99888.31;5034879;28;20041;-87
2023/04/02 02:52:17;;;;;;;89.40;81.80;;;;;;;9.26;100.00;99882.72;5034624;28;20057;-87
2023/04/02 02:54:49;;;;;;;110.93;101.57;;;;;;;8.94;100.00;99875.63;5033336;28;20505;-87
2023/04/02 02:57:21;;;;;;;113.10;103.75;;;;;;;9.18;100.00;99892.56;5032541;28;20168;-87
2023/04/02 02:59:51;;;;;;;107.53;98.60;;;;;;;9.15;100.00;99895.66;5034537;28;20049;-87
2023/04/02 03:02:18;;;;;;;116.05;106.35;;;;;;;9.37;100.00;99887.31;5033046;28;20053;-87
2023/04/02 03:04:48;;;;;;;114.22;104.82;;;;;;;9.08;100.00;99900.19;5032922;28;20487;-87
2023/04/02 03:07:18;;;;;;;102.25;93.05;;;;;;;9.05;100.00;99891.88;5033060;28;20042;-87
2023/04/02 03:09:51;;;;;;;117.65;107.90;;;;;;;9.10;100.00;99889.38;5034128;28;20056;-87
2023/04/02 03:12:35;;;;;;;111.50;102.00;;;;;;;9.18;100.00;99899.72;5034391;28;20045;-87
2023/04/02 03:15:12;;;;;;;129.73;119.78;;;;;;;9.44;100.00;99897.84;5032937;28;20049;-87
2023/04/02 03:17:44;;;;;;;124.55;114.55;;;;;;;9.09;100.00;99904.47;5030876;28;20041;-87
2023/04/02 03:20:15;;;;;;;133.45;122.25;;;;;;;9.07;100.00;99900.41;5029074;28;20091;-87
2023/04/02 03:22:47;;;;;;;128.02;117.15;;;;;;;8.96;100.00;99909.88;5028284;28;20049;-87
2023/04/02 03:25:24;;;;;;;126.38;115.88;;;;;;;9.33;100.00;99900.19;5028304;28;20076;-86
2023/04/02 03:27:58;;;;;;;130.65;120.25;;;;;;;9.04;100.00;99908.78;5004433;28;20107;-87
2023/04/02 03:30:34;;;;;;;136.40;124.88;;;;;;;9.10;100.00;99910.56;5048316;28;20044;-87
2023/04/02 03:33:05;;;;;;;124.22;113.43;;;;;;;9.25;100.00;99904.94;5050119;28;20051;-87
2023/04/02 03:35:37;;;;;;;106.82;97.65;;;;;;;9.50;100.00;99905.75;5048270;28;20041;-87
2023/04/02 03:38:11;;;;;;;115.32;105.65;;;;;;;9.60;100.00;99911.38;5051498;28;20048;-87
2023/04/02 03:40:41;;;;;;;98.70;90.53;;;;;;;9.36;100.00;99904.25;5052728;28;20037;-87
2023/04/02 03:43:19;;;;;;;109.40;100.43;;;;;;;9.30;100.00;99913.06;5048356;28;20107;-87
2023/04/02 03:45:51;;;;;;;112.47;103.03;;;;;;;9.51;100.00;99911.88;5043883;28;20053;-87
2023/04/02 03:48:26;;;;;;;102.75;94.00;;;;;;;9.32;100.00;99918.94;5043684;28;20045;-87
2023/04/02 03:50:58;;;;;;;108.50;99.70;;;;;;;9.34;100.00;99908.94;5042131;28;20057;-87
2023/04/02 03:53:28;;;;;;;95.20;87.30;;;;;;;9.37;100.00;99929.72;5046187;28;20419;-87
2023/04/02 03:55:56;;;;;;;100.82;92.78;;;;;;;9.77;100.00;99924.88;5039697;28;20095;-87
2023/04/02 03:58:27;;;;;;;84.03;77.03;;;;;;;9.76;100.00;99933.84;5045570;28;20049;-87
2023/04/02 04:01:00;;;;;;;84.32;77.43;;;;;;;9.86;100.00;99928.03;5051436;28;20049;-86
2023/04/02 04:03:32;;;;;;;81.95;75.15;;;;;;;9.34;100.00;99940.75;5054507;28;20104;-87
2023/04/02 04:06:02;;;;;;;80.80;73.82;;;;;;;9.36;100.00;99931.56;5049957;28;20045;-87
2023/04/02 04:08:33;;;;;;;64.63;59.08;;;;;;;9.97;100.00;99926.50;5055210;28;20460;-87
2023/04/02 04:11:07;;;;;;;75.85;69.70;;;;;;;9.37;100.00;99937.66;5045241;28;20049;-87
2023/04/02 04:13:41;;;;;;;73.60;67.50;;;;;;;9.76;100.00;99931.19;5055414;28;20044;-87
2023/04/02 04:16:14;;;;;;;71.38;65.88;;;;;;;10.22;100.00;99940.47;5053621;28;20458;-87
2023/04/02 04:18:47;;;;;;;58.58;54.08;;;;;;;9.90;100.00;99936.38;5053858;28;20049;-87
2023/04/02 04:21:28;;;;;;;54.95;50.75;;;;;;;10.16;100.00;99944.03;5053702;28;20052;-87
2023/04/02 04:23:57;;;;;;;68.60;63.20;;;;;;;9.60;100.00;99956.44;5049021;28;20049;-86
2023/04/02 04:26:33;;;;;;;76.22;69.75;;;;;;;9.47;100.00;99959.22;5050117;28;20098;-87
2023/04/02 04:29:11;;;;;;;80.72;74.65;;;;;;;9.81;100.00;99959.72;5051424;28;20049;-86
2023/04/02 04:31:45;;;;;;;72.60;66.93;;;;;;;9.47;100.00;99961.03;5045725;28;20068;-86
2023/04/02 04:34:16;;;;;;;56.65;52.13;;;;;;;10.06;100.00;99960.47;5051299;28;20057;-87
2023/04/02 04:36:53;;;;;;;74.82;68.82;;;;;;;9.09;100.00;99970.69;5051306;28;20045;-87
2023/04/02 04:39:23;;;;;;;79.97;73.82;;;;;;;9.46;100.00;99984.06;5054006;28;20071;-87
2023/04/02 04:41:54;;;;;;;91.20;84.18;;;;;;;9.54;100.00;99986.47;5058347;28;20040;-86
2023/04/02 04:44:25;;;;;;;97.88;90.18;;;;;;;9.43;100.00;99994.31;5049190;28;20392;-86
2023/04/02 04:47:00;;;;;;;87.82;80.72;;;;;;;9.15;100.00;99987.56;5056163;28;20121;-86
2023/04/02 04:49:32;;;;;;;85.40;78.50;;;;;;;9.34;100.00;99999.88;5057485;28;20136;-86
2023/04/02 04:52:00;;;;;;;;;;;;;;;9.05;100.00;99997.84;5049296;28;20049;-86
2023/04/02 04:54:28;;;;;;;93.93;86.47;;;;;;;9.20;100.00;100005.47;5053590;28;19971;-86
2023/04/02 04:57:00;;;;;;;87.63;80.65;;;;;;;9.16;100.00;100008.53;5053675;28;20052;-87
2023/04/02 04:59:32;;;;;;;74.85;69.18;;;;;;;9.72;100.00;100009.56;5061327;28;20048;-86
2023/04/02 05:02:06;;;;;;;87.70;80.70;;;;;;;9.37;100.00;100006.56;5051123;28;20495;-86
2023/04/02 05:04:37;;;;;;;87.75;80.85;;;;;;;9.66;100.00;99999.03;5053144;28;20482;-87
2023/04/02 05:07:08;;;;;;;94.90;87.43;;;;;;;9.33;100.00;100006.19;5056952;28;20091;-86
2023/04/02 05:09:40;;;;;;;92.63;85.27;;;;;;;9.40;100.00;100011.44;5061380;28;20098;-86
2023/04/02 05:12:17;;;;;;;88.05;81.10;;;;;;;9.40;100.00;100016.75;5067087;28;20049;-87
2023/04/02 05:14:49;;;;;;;101.45;93.70;;;;;;;9.55;100.00;100014.59;5081659;28;20079;-87
2023/04/02 05:17:23;;;;;;;95.05;87.75;;;;;;;9.79;100.00;100022.75;5068296;28;20044;-86
2023/04/02 05:19:55;;;;;;;96.18;88.47;;;;;;;9.31;100.00;100039.22;5062700;28;20048;-87
2023/04/02 05:22:30;;;;;;;92.65;85.75;;;;;;;9.70;100.00;100034.69;5062264;28;20087;-86
2023/04/02 05:25:09;;;;;;;93.10;85.95;;;;;;;9.38;100.00;100026.78;5060650;28;20084;-86
2023/04/02 05:27:42;;;;;;;84.10;77.32;;;;;;;9.86;100.00;100037.59;5068873;28;20109;-86
2023/04/02 05:30:18;;;;;;;66.90;61.90;;;;;;;10.32;100.00;100040.88;5062445;28;20045;-87
2023/04/02 05:32:55;;;;;;;74.40;68.95;;;;;;;9.98;100.00;100045.63;5060616;28;20044;-87
2023/04/02 05:35:27;;;;;;;64.85;59.72;;;;;;;9.58;100.00;100045.97;5061513;28;20435;-87
2023/04/02 05:37:54;;;;;;;53.78;49.67;;;;;;;9.99;100.00;100034.03;5063247;28;20049;-86
2023/04/02 05:40:24;;;;;;;61.00;56.05;;;;;;;10.05;100.00;100046.41;5065803;28;20469;-86
2023/04/02 05:42:54;;;;;;;64.32;59.22;;;;;;;9.83;100.00;100050.47;5048132;28;20071;-86
2023/04/02 05:45:28;;;;;;;66.15;61.22;;;;;;;9.90;100.00;100056.53;5054467;28;20111;-86
2023/04/02 05:48:00;;;;;;;76.65;70.65;;;;;;;9.69;100.00;100065.69;5047670;28;20103;-86
2023/04/02 05:50:30;;;;;;;61.28;56.47;;;;;;;10.25;100.00;100066.63;5052338;28;20056;-86
2023/04/02 05:53:04;;;;;;;75.05;69.05;;;;;;;10.08;100.00;100069.84;5055984;28;20059;-86
2023/04/02 05:55:40;;;;;;;64.65;59.85;;;;;;;10.25;100.00;100069.28;5054978;28;20072;-86
2023/04/02 05:58:16;;;;;;;54.45;50.25;;;;;;;10.17;100.00;100073.03;5058231;28;20046;-86
2023/04/02 06:00:55;;;;;;;58.47;54.03;;;;;;;10.16;100.00;100078.56;5052049;28;20053;-86
2023/04/02 06:03:29;;;;;;;75.43;69.95;;;;;;;9.60;100.00;100085.53;5057269;28;20053;-86
2023/04/02 06:06:01;;;;;;;95.65;88.88;;;;;;;9.95;100.00;100088.53;5056439;28;20056;-86
2023/04/02 06:08:35;;;;;;;90.82;83.93;;;;;;;9.78;100.00;100084.81;5058937;28;20107;-87
2023/04/02 06:11:07;;;;;;;88.53;81.70;;;;;;;9.93;100.00;100095.91;5061058;28;20140;-86
2023/04/02 06:13:35;;;;;;;94.57;87.68;;;;;;;10.24;100.00;100091.56;5059195;28;20045;-86
2023/04/02 06:16:02;;;;;;;101.95;93.60;;;;;;;9.53;100.00;100085.59;5056751;28;20113;-87
2023/04/02 06:18:33;;;;;;;105.13;96.82;;;;;;;9.64;100.00;100097.34;5057868;28;20040;-86
2023/04/02 06:21:00;;;;;;;107.15;98.65;;;;;;;9.83;100.00;100096.41;5060178;28;20049;-86
2023/04/02 06:23:31;;;;;;;101.05;92.97;;;;;;;9.51;100.00;100097.44;5058038;28;20114;-86
2023/04/02 06:26:03;;;;;;;103.78;94.38;;;;;;;9.75;100.00;100109.09;5052987;28;20114;-86
2023/04/02 06:28:38;;;;;;;93.13;85.30;;;;;;;10.07;100.00;100105.34;5049371;28;20108;-86
2023/04/02 06:31:09;;;;;;;89.57;80.88;;;;;;;10.02;100.00;100104.41;5059985;28;20048;-86
2023/04/02 06:33:37;;;;;;;102.07;94.00;;;;;;;9.51;100.00;100108.03;5060515;28;20048;-86
2023/04/02 06:36:06;;;;;;;104.97;95.72;;;;;;;9.77;100.00;100112.34;5059735;28;20700;-86
2023/04/02 06:38:36;;;;;;;112.22;103.82;;;;;;;10.03;100.00;100116.63;5052924;28;20042;-86
2023/04/02 06:41:08;;;;;;;131.18;119.97;;;;;;;9.81;100.00;100113.53;5050338;28;20075;-86
2023/04/02 06:43:40;;;;;;;124.55;114.55;;;;;;;9.79;100.00;100116.41;5055807;28;20498;-86
2023/04/02 06:46:14;;;;;;;107.55;98.78;;;;;;;9.82;100.00;100126.56;5057005;28;20098;-86
2023/04/02 06:48:45;;;;;;;104.00;95.85;;;;;;;9.74;100.00;100121.56;5055364;28;20037;-86
2023/04/02 06:51:16;;;;;;;125.85;116.28;;;;;;;9.71;100.00;100131.75;5061118;28;20048;-86
2023/04/02 06:53:45;;;;;;;115.55;106.25;;;;;;;9.91;100.00;100132.44;5055170;28;20072;-87
2023/04/02 06:56:22;;;;;;;131.52;120.63;;;;;;;9.82;100.00;100133.72;5053569;28;20048;-86
2023/04/02 06:58:50;;;;;;;133.32;121.55;;;;;;;10.30;100.00;100136.63;5055867;28;20041;-86
2023/04/02 07:01:20;;;;;;;118.25;108.03;;;;;;;10.46;100.00;100135.25;5055139;28;20063;-86
2023/04/02 07:03:48;;;;;;;121.50;111.50;;;;;;;9.90;100.00;100137.97;5057804;28;20049;-86
2023/04/02 07:06:16;;;;;;;120.30;110.30;;;;;;;10.20;100.00;100148.75;5056699;28;20485;-86
2023/04/02 07:08:43;;;;;;;126.63;116.72;;;;;;;10.25;100.00;100143.59;5051475;28;20045;-86
2023/04/02 07:11:12;;;;;;;112.93;102.88;;;;;;;10.58;100.00;100151.28;5056586;28;20518;-87
2023/04/02 07:13:39;;;;;;;127.82;115.75;;;;;;;10.74;100.00;100149.88;5054430;28;20045;-87
2023/04/02 07:16:12;;;;;;;112.38;102.45;;;;;;;10.58;100.00;100143.31;5055233;28;20052;-86
2023/04/02 07:18:38;;;;;;;;;;;;;;;10.70;100.00;100154.03;5054799;28;20064;-86
2023/04/02 07:21:06;;;;;;;111.82;101.18;;;;;;;10.76;100.00;100158.47;5055940;28;20340;-87
2023/04/02 07:23:33;;;;;;;112.32;101.30;;;;;;;10.94;100.00;100157.66;5052220;28;20076;-86
2023/04/02 07:26:01;;;;;;;102.45;92.50;;;;;;;10.89;100.00;100161.00;5052207;28;20052;-86
2023/04/02 07:28:28;;;;;;;118.15;107.35;;;;;;;10.97;100.00;100155.34;5055574;28;20108;-86
2023/04/02 07:30:55;;;;;;;95.93;87.03;;;;;;;10.97;100.00;100168.66;5049811;28;20118;-87
2023/04/02 07:33:24;;;;;;;113.22;103.25;;;;;;;10.73;100.00;100170.31;5053694;28;20074;-86
2023/04/02 07:35:52;;;;;;;115.25;106.35;;;;;;;11.32;100.00;100162.72;5058150;28;20045;-86
2023/04/02 07:38:20;;;;;;;99.05;89.85;;;;;;;11.41;100.00;100160.56;5055095;28;20053;-87
2023/04/02 07:40:46;;;;;;;109.32;99.53;;;;;;;11.52;100.00;100172.28;5054995;28;20045;-86
2023/04/02 07:43:13;;;;;;;102.88;93.80;;;;;;;11.58;100.00;100161.53;5056382;28;20040;-87
2023/04/02 07:45:40;;;;;;;75.72;66.95;;;;;;;11.35;100.00;100158.81;5054246;28;20068;-87
2023/04/02 07:48:08;;;;;;;67.68;56.50;;;;;;;11.68;100.00;100156.50;5061205;28;20053;-86
2023/04/02 07:50:35;;;;;;;86.95;78.85;;;;;;;11.51;100.00;100165.34;5050450;28;20052;-86
2023/04/02 07:53:02;;;;;;;83.03;74.60;;;;;;;11.17;100.00;100162.31;5057150;28;20072;-87
2023/04/02 07:55:30;;;;;;;106.65;97.30;;;;;;;11.75;100.00;100167.06;5063119;28;20090;-87
2023/04/02 07:57:59;;;;;;;91.22;82.95;;;;;;;11.87;100.00;100173.25;5057659;28;20051;-87
2023/04/02 08:00:27;;;;;;;94.65;86.57;;;;;;;11.74;100.00;100169.94;5055225;28;20044;-86
2023/04/02 08:02:54;;;;;;;92.03;82.72;;;;;;;11.90;100.00;100161.34;5058226;28;20053;-86
2023/04/02 08:05:21;;;;;;;85.50;76.75;;;;;;;12.26;100.00;100163.03;5053159;28;20061;-87
2023/04/02 08:07:53;;;;;;;80.07;72.43;;;;;;;12.49;100.00;100162.19;5060723;28;20095;-87
2023/04/02 08:10:20;;;;;;;71.78;64.22;;;;;;;11.89;100.00;100157.88;5052607;28;20052;-87
2023/04/02 08:12:50;;;;;;;67.38;59.35;;;;;;;12.17;100.00;100174.25;5056456;28;20057;-86
2023/04/02 08:15:17;;;;;;;58.67;52.67;;;;;;;12.17;100.00;100174.25;5052979;28;20045;-87
2023/04/02 08:17:46;;;;;;;59.45;50.28;;;;;;;12.32;100.00;100172.75;5056586;28;20103;-87
2023/04/02 08:20:16;;;;;;;57.85;48.25;;;;;;;12.44;100.00;100178.09;5053434;28;20060;-87
2023/04/02 08:22:43;;;;;;;59.08;52.67;;;;;;;12.53;100.00;100175.91;5054625;28;20108;-87
2023/04/02 08:25:10;;;;;;;68.18;53.22;;;;;;;12.92;100.00;100177.03;5056949;28;20060;-87
2023/04/02 08:27:37;;;;;;;58.60;51.42;;;;;;;12.90;100.00;100181.78;5057115;28;20056;-87
2023/04/02 08:30:08;;;;;;;59.38;52.92;;;;;;;12.39;100.00;100172.63;5063189;28;20106;-87
2023/04/02 08:32:35;;;;;;;57.63;52.03;;;;;;;12.50;100.00;100184.34;5048209;28;20075;-87
2023/04/02 08:35:01;;;;;;;60.45;54.75;;;;;;;12.42;100.00;100180.16;5050626;28;20044;-87
2023/04/02 08:37:28;;;;;;;54.95;49.10;;;;;;;12.55;100.00;100195.91;5052218;28;20045;-87
2023/04/02 08:39:55;;;;;;;59.10;53.63;;;;;;;12.58;100.00;100195.44;5047136;28;20107;-86
2023/04/02 08:42:30;;;;;;;58.88;53.28;;;;;;;12.38;100.00;100198.47;5057210;28;20071;-86
2023/04/02 08:45:08;;;;;;;58.70;51.67;;;;;;;12.86;100.00;100195.78;5052813;28;20061;-87
2023/04/02 08:47:39;;;;;;;60.35;53.75;;;;;;;13.08;100.00;100196.81;5056803;28;20115;-87
2023/04/02 08:50:16;;;;;;;62.05;55.20;;;;;;;13.27;100.00;100197.50;5053070;28;20056;-87
2023/04/02 08:52:43;;;;;;;63.70;53.13;;;;;;;13.69;100.00;100191.91;5048930;28;20080;-87
2023/04/02 08:55:22;;;;;;;62.63;50.08;;;;;;;13.17;100.00;100183.94;5049309;28;20469;-87
2023/04/02 08:57:56;;;;;;;58.17;51.33;;;;;;;12.78;100.00;100195.09;5050765;28;20044;-87
2023/04/02 09:00:34;;;;;;;51.47;43.88;;;;;;;13.11;100.00;100195.53;5054833;28;20564;-86
2023/04/02 09:03:08;;;;;;;52.00;45.30;;;;;;;12.98;100.00;100192.09;5053553;28;20045;-86
2023/04/02 09:05:39;;;;;;;58.00;48.17;;;;;;;13.22;100.00;100194.69;5053527;28;20041;-87
2023/04/02 09:08:16;;;;;;;61.50;52.72;;;;;;;13.03;100.00;100191.34;5047778;28;20053;-87
2023/04/02 09:10:51;;;;;;;74.00;67.20;;;;;;;13.59;100.00;100197.06;5054942;28;20450;-87
2023/04/02 09:13:24;;;;;;;57.45;49.65;;;;;;;13.32;100.00;100186.94;5051662;28;20115;-87
2023/04/02 09:15:54;;;;;;;;;;;;;;;13.27;100.00;100184.16;5056999;28;20049;-87
2023/04/02 09:18:21;;;;;;;37.88;35.00;;;;;;;13.10;100.00;100188.56;5058916;28;19921;-87
2023/04/02 09:20:48;;;;;;;34.22;31.55;;;;;;;13.21;100.00;100193.88;5052805;28;20103;-87
2023/04/02 09:23:18;;;;;;;41.90;38.60;;;;;;;13.57;100.00;100183.13;5052684;28;20422;-87
2023/04/02 09:25:47;;;;;;;39.42;36.63;;;;;;;13.74;100.00;100194.66;5049186;28;20072;-87
2023/04/02 09:28:15;;;;;;;36.58;33.78;;;;;;;13.76;100.00;100192.53;5054918;28;20071;-86
2023/04/02 09:30:58;;;;;;;41.63;38.03;;;;;;;14.07;100.00;100201.91;5056559;28;20252;-87
2023/04/02 09:33:43;;;;;;;33.47;30.85;;;;;;;14.21;100.00;100197.88;5055429;28;20497;-87
2023/04/02 09:36:35;;;;;;;36.35;33.42;;;;;;;14.48;100.00;100193.75;5053040;28;20049;-87
2023/04/02 09:39:07;;;;;;;32.55;30.10;;;;;;;14.38;100.00;100207.75;5052965;28;20051;-87
2023/04/02 09:41:35;;;;;;;33.88;31.30;;;;;;;14.27;100.00;100197.94;5058068;28;20072;-87
2023/04/02 09:44:21;;;;;;;37.00;34.22;;;;;;;13.74;100.00;100203.47;5055733;28;20061;-86
2023/04/02 09:46:53;;;;;;;37.75;34.88;;;;;;;13.76;100.00;100208.56;5050701;28;20056;-87
2023/04/02 09:49:24;;;;;;;35.50;33.00;;;;;;;14.19;100.00;100216.00;5058218;28;20067;-86
2023/04/02 09:52:25;;;;;;;30.10;27.93;;;;;;;13.77;100.00;100207.53;4700554;28;10000148;-86
2023/04/02 09:55:20;;;;;;;34.92;32.42;;;;;;;13.62;100.00;100207.25;5045945;28;20088;-87
2023/04/02 09:57:49;;;;;;;28.85;27.02;;;;;;;13.39;100.00;100200.13;5048240;28;20072;-87
2023/04/02 10:00:20;;;;;;;36.35;33.55;;;;;;;14.17;100.00;100211.97;5050614;28;20068;-87
2023/04/02 10:03:03;;;;;;;29.25;27.15;;;;;;;13.83;100.00;100211.06;5048494;28;20075;-86
2023/04/02 10:05:30;;;;;;;;;;;;;;;13.89;100.00;100210.16;5047677;28;20079;-87
2023/04/02 10:08:07;;;;;;;23.83;22.33;;;;;;;13.57;100.00;100218.63;5046993;28;19924;-87
2023/04/02 10:10:46;;;;;;;33.38;30.97;;;;;;;14.35;100.00;100217.06;4668727;28;10002957;-87
2023/04/02 10:13:20;;;;;;;27.17;25.27;;;;;;;13.84;100.00;100212.72;5048600;28;20049;-87
2023/04/02 10:15:51;;;;;;;27.20;25.40;;;;;;;14.29;100.00;100225.25;5048632;28;20049;-87
2023/04/02 10:18:30;;;;;;;35.10;32.33;;;;;;;14.73;100.00;100217.38;5045300;28;20050;-87
2023/04/02 10:21:00;;;;;;;26.30;24.58;;;;;;;13.98;100.00;100220.19;5044229;28;20049;-87
2023/04/02 10:23:30;;;;;;;30.33;28.20;;;;;;;14.31;100.00;100212.44;5044216;28;20068;-87
2023/04/02 10:26:08;;;;;;;27.45;25.38;;;;;;;14.29;100.00;100223.38;5049495;28;20144;-87
2023/04/02 10:28:48;;;;;;;25.27;22.88;;;;;;;14.33;100.00;100224.50;5054976;28;20357;-86
2023/04/02 10:31:21;;;;;;;27.60;25.60;;;;;;;14.71;100.00;100225.66;5045049;28;20081;-87
2023/04/02 10:33:52;;;;;;;28.20;26.00;;;;;;;15.03;100.00;100225.84;5060924;28;20049;-87
2023/04/02 10:36:29;;;;;;;30.10;27.63;;;;;;;15.48;100.00;100223.97;5056807;28;20134;-87
2023/04/02 10:39:03;;;;;;;26.95;25.05;;;;;;;15.81;100.00;100215.00;5066921;28;20068;-87
2023/04/02 10:41:34;;;;;;;28.15;26.20;;;;;;;15.31;100.00;100203.47;5060168;28;20049;-87
2023/04/02 10:44:28;;;;;;;28.15;26.15;;;;;;;16.03;100.00;100214.94;5052831;28;20041;-87
2023/04/02 10:47:12;;;;;;;32.50;30.20;;;;;;;16.35;100.00;100208.78;5052698;28;20075;-87
2023/04/02 10:49:48;;;;;;;25.85;23.95;;;;;;;15.45;100.00;100211.09;5056739;28;20053;-87
2023/04/02 10:52:21;;;;;;;27.52;25.73;;;;;;;15.67;100.00;100211.91;5060647;28;20053;-87
2023/04/02 10:54:50;;;;;;;27.48;25.38;;;;;;;16.97;100.00;100220.75;5060097;28;20069;-87
2023/04/02 10:57:33;;;;;;;23.38;21.77;;;;;;;16.23;100.00;100207.09;4708568;28;10001247;-87
2023/04/02 11:00:15;;;;;;;24.27;22.67;;;;;;;15.96;100.00;100209.00;5051084;28;20058;-87
2023/04/02 11:02:49;;;;;;;23.73;21.85;;;;;;;17.45;100.00;100208.88;5052481;28;20117;-87
2023/04/02 11:05:25;;;;;;;22.13;20.55;;;;;;;15.10;100.00;100209.63;5059883;28;20091;-86
2023/04/02 11:07:57;;;;;;;23.70;22.10;;;;;;;14.49;100.00;100204.16;5053557;28;20045;-86
2023/04/02 11:10:26;;;;;;;27.63;25.63;;;;;;;15.38;100.00;100199.78;5055289;28;20139;-87
2023/04/02 11:12:58;;;;;;;24.77;23.08;;;;;;;14.98;100.00;100207.06;5062196;28;20415;-87
2023/04/02 11:15:26;;;;;;;33.03;30.67;;;;;;;15.32;100.00;100201.59;5050805;28;20045;-87
2023/04/02 11:17:53;;;;;;;28.13;26.33;;;;;;;14.77;100.00;100199.81;5050321;28;20053;-86
2023/04/02 11:20:56;;;;;;;27.05;24.92;;;;;;;13.90;100.00;100201.06;5052029;28;20140;-87
2023/04/02 11:23:27;;;;;;;40.05;37.05;;;;;;;16.08;100.00;100198.13;5055992;28;20045;-87
2023/04/02 11:26:33;;;;;;;37.00;34.30;;;;;;;16.76;100.00;100196.47;5051474;28;20079;-87
2023/04/02 11:29:14;;;;;;;25.40;23.75;;;;;;;16.13;100.00;100190.13;5050594;28;20065;-87
2023/04/02 11:31:42;;;;;;;26.27;24.48;;;;;;;16.84;100.00;100195.19;5048190;28;20041;-87